createdAt,value
2022-11-24T00:01:55.887Z,7.80
2022-11-24T00:04:26.964Z,7.83
2022-11-24T00:06:57.853Z,7.82
2022-11-24T00:09:27.695Z,7.81
2022-11-24T00:12:01.399Z,7.88
2022-11-24T00:14:31.573Z,7.90
2022-11-24T00:17:01.701Z,7.93
2022-11-24T00:19:31.613Z,8.02
2022-11-24T00:22:01.412Z,8.02
2022-11-24T00:24:31.476Z,8.05
2022-11-24T00:27:03.996Z,8.07
2022-11-24T00:29:33.799Z,8.17
2022-11-24T00:32:06.108Z,8.21
2022-11-24T00:34:36.321Z,8.21
2022-11-24T00:37:06.114Z,8.24
2022-11-24T00:39:35.966Z,8.28
2022-11-24T00:42:08.457Z,8.25
2022-11-24T00:44:38.297Z,8.20
2022-11-24T00:47:08.291Z,8.16
2022-11-24T00:49:38.911Z,8.05
2022-11-24T00:52:08.726Z,8.11
2022-11-24T00:54:38.558Z,8.22
2022-11-24T00:57:10.959Z,8.25
2022-11-24T00:59:40.774Z,8.46
2022-11-24T01:02:10.617Z,8.48
2022-11-24T01:04:40.528Z,8.47
2022-11-24T01:07:10.375Z,8.48
2022-11-24T01:09:43.254Z,8.54
2022-11-24T01:12:15.671Z,8.55
2022-11-24T01:14:45.472Z,8.62
2022-11-24T01:17:15.297Z,8.26
2022-11-24T01:19:47.200Z,8.62
2022-11-24T01:22:17.045Z,8.38
2022-11-24T01:24:46.927Z,8.74
2022-11-24T01:27:19.351Z,8.77
2022-11-24T01:29:49.221Z,8.77
2022-11-24T01:32:19.065Z,8.87
2022-11-24T01:34:49.248Z,8.85
2022-11-24T01:37:19.079Z,8.92
2022-11-24T01:39:49.038Z,8.95
2022-11-24T01:42:21.471Z,9.09
2022-11-24T01:44:52.134Z,9.07
2022-11-24T01:47:36.621Z,9.11
2022-11-24T01:50:08.759Z,9.06
2022-11-24T01:52:44.307Z,9.23
2022-11-24T01:55:19.483Z,9.29
2022-11-24T01:57:58.395Z,9.33
2022-11-24T02:00:28.785Z,9.32
2022-11-24T02:03:01.562Z,9.10
2022-11-24T02:05:36.015Z,9.35
2022-11-24T02:08:06.542Z,9.23
2022-11-24T02:10:36.424Z,9.28
2022-11-24T02:13:08.831Z,9.24
2022-11-24T02:15:38.865Z,9.31
2022-11-24T02:18:08.864Z,9.39
2022-11-24T02:20:38.824Z,9.29
2022-11-24T02:23:15.491Z,9.30
2022-11-24T02:25:54.076Z,9.30
2022-11-24T02:28:29.875Z,9.39
2022-11-24T02:31:00.442Z,9.41
2022-11-24T02:33:30.899Z,9.39
2022-11-24T02:36:00.855Z,9.40
2022-11-24T02:38:34.841Z,9.37
2022-11-24T02:41:08.616Z,9.29
2022-11-24T02:43:45.426Z,9.03
2022-11-24T02:46:15.337Z,9.43
2022-11-24T02:48:45.216Z,9.41
2022-11-24T02:51:15.172Z,9.15
2022-11-24T02:53:45.014Z,9.58
2022-11-24T02:56:15.006Z,9.62
2022-11-24T02:58:47.432Z,9.72
2022-11-24T03:01:17.318Z,9.74
2022-11-24T03:03:47.472Z,9.80
2022-11-24T03:06:17.335Z,9.15
2022-11-24T03:08:47.126Z,9.38
2022-11-24T03:11:17.005Z,9.53
2022-11-24T03:13:49.465Z,9.27
2022-11-24T03:16:19.353Z,9.51
2022-11-24T03:18:49.437Z,9.15
2022-11-24T03:21:19.288Z,9.42
2022-11-24T03:23:49.159Z,9.24
2022-11-24T03:26:22.038Z,9.36
2022-11-24T03:28:57.254Z,9.35
2022-11-24T03:31:27.793Z,9.22
2022-11-24T03:33:57.837Z,9.35
2022-11-24T03:36:27.755Z,9.29
2022-11-24T03:38:57.579Z,9.35
2022-11-24T03:41:27.475Z,9.30
2022-11-24T03:43:59.985Z,9.21
2022-11-24T03:46:29.861Z,9.23
2022-11-24T03:48:59.780Z,9.20
2022-11-24T03:51:29.552Z,9.22
2022-11-24T03:53:59.395Z,9.21
2022-11-24T03:56:29.209Z,9.22
2022-11-24T03:59:01.654Z,8.91
2022-11-24T04:01:31.586Z,8.81
2022-11-24T04:04:01.509Z,9.11
2022-11-24T04:06:31.554Z,9.06
2022-11-24T04:09:02.889Z,9.13
2022-11-24T04:11:45.143Z,9.13
2022-11-24T04:14:18.438Z,9.15
2022-11-24T04:16:48.304Z,8.97
2022-11-24T04:19:18.106Z,8.85
2022-11-24T04:21:47.984Z,9.01
2022-11-24T04:24:17.813Z,9.06
2022-11-24T04:26:47.657Z,9.08
2022-11-24T04:29:20.105Z,9.06
2022-11-24T04:31:49.972Z,9.11
2022-11-24T04:34:19.841Z,9.10
2022-11-24T04:36:49.675Z,9.03
2022-11-24T04:39:25.341Z,9.09
2022-11-24T04:41:56.576Z,9.01
2022-11-24T04:44:29.391Z,9.02
2022-11-24T04:46:59.279Z,8.81
2022-11-24T04:49:29.162Z,8.73
2022-11-24T04:51:59.295Z,8.73
2022-11-24T04:54:29.123Z,8.85
2022-11-24T04:56:58.979Z,8.94
2022-11-24T04:59:31.562Z,9.09
2022-11-24T05:02:01.537Z,8.59
2022-11-24T05:04:31.688Z,9.10
2022-11-24T05:07:01.865Z,9.06
2022-11-24T05:09:54.962Z,9.01
2022-11-24T05:12:21.586Z,8.84
2022-11-24T05:14:54.452Z,8.59
2022-11-24T05:17:24.326Z,8.91
2022-11-24T05:19:54.149Z,8.94
2022-11-24T05:22:24.010Z,8.99
2022-11-24T05:24:53.926Z,9.00
2022-11-24T05:27:23.864Z,9.03
2022-11-24T05:29:56.365Z,9.10
2022-11-24T05:32:26.258Z,9.05
2022-11-24T05:34:56.838Z,9.06
2022-11-24T05:37:27.258Z,9.10
2022-11-24T05:39:57.365Z,9.05
2022-11-24T05:42:44.892Z,9.07
2022-11-24T05:45:21.456Z,9.12
2022-11-24T05:47:53.246Z,9.16
2022-11-24T05:50:25.554Z,9.22
2022-11-24T05:52:55.510Z,8.93
2022-11-24T05:55:25.432Z,9.21
2022-11-24T05:58:01.551Z,9.24
2022-11-24T06:00:36.852Z,9.26
2022-11-24T06:03:07.378Z,9.17
2022-11-24T06:05:37.366Z,9.12
2022-11-24T06:08:07.918Z,8.99
2022-11-24T06:10:38.889Z,9.14
2022-11-24T06:13:09.509Z,9.13
2022-11-24T06:15:42.219Z,9.06
2022-11-24T06:18:13.118Z,8.95
2022-11-24T06:20:53.139Z,8.66
2022-11-24T06:23:33.911Z,8.98
2022-11-24T06:26:04.997Z,9.02
2022-11-24T06:28:34.977Z,9.05
2022-11-24T06:31:08.563Z,9.03
2022-11-24T06:33:40.646Z,8.94
2022-11-24T06:36:14.784Z,9.02
2022-11-24T06:38:44.653Z,9.06
2022-11-24T06:41:16.630Z,9.13
2022-11-24T06:43:47.656Z,9.17
2022-11-24T06:46:20.826Z,9.21
2022-11-24T06:48:53.569Z,9.13
2022-11-24T06:51:23.682Z,8.80
2022-11-24T06:53:54.721Z,9.22
2022-11-24T06:56:28.562Z,9.32
2022-11-24T06:58:59.459Z,9.33
2022-11-24T07:01:32.899Z,8.94
2022-11-24T07:04:03.171Z,9.28
2022-11-24T07:06:34.085Z,9.33
2022-11-24T07:09:04.206Z,9.39
2022-11-24T07:11:34.188Z,9.47
2022-11-24T07:14:04.067Z,9.46
2022-11-24T07:16:37.046Z,9.33
2022-11-24T07:19:06.971Z,9.23
2022-11-24T07:21:36.956Z,9.36
2022-11-24T07:24:07.615Z,9.40
2022-11-24T07:26:40.237Z,9.31
2022-11-24T07:29:10.297Z,8.91
2022-11-24T07:31:46.250Z,9.44
2022-11-24T07:34:17.184Z,9.44
2022-11-24T07:36:47.025Z,9.52
2022-11-24T07:39:16.930Z,9.47
2022-11-24T07:41:46.902Z,9.52
2022-11-24T07:44:16.764Z,9.57
2022-11-24T07:46:51.298Z,9.59
2022-11-24T07:49:26.535Z,9.72
2022-11-24T07:51:56.478Z,9.71
2022-11-24T07:54:27.404Z,9.71
2022-11-24T07:56:57.295Z,9.72
2022-11-24T07:59:28.229Z,9.74
2022-11-24T08:02:04.175Z,9.77
2022-11-24T08:04:34.355Z,9.62
2022-11-24T08:07:05.285Z,9.57
2022-11-24T08:09:35.181Z,9.43
2022-11-24T08:12:05.337Z,9.16
2022-11-24T08:14:35.377Z,9.50
2022-11-24T08:17:08.120Z,9.54
2022-11-24T08:19:40.024Z,9.04
2022-11-24T08:22:09.883Z,9.47
2022-11-24T08:24:46.110Z,9.32
2022-11-24T08:27:18.901Z,9.68
2022-11-24T08:29:49.013Z,9.71
2022-11-24T08:32:22.565Z,9.80
2022-11-24T08:34:59.517Z,9.77
2022-11-24T08:37:33.355Z,9.93
2022-11-24T08:40:04.243Z,9.77
2022-11-24T08:42:34.193Z,10.19
2022-11-24T08:45:19.429Z,10.23
2022-11-24T08:47:59.031Z,10.33
2022-11-24T08:50:29.973Z,10.37
2022-11-24T08:53:00.908Z,10.29
2022-11-24T08:55:30.806Z,10.37
2022-11-24T08:58:00.720Z,10.31
2022-11-24T09:00:31.665Z,10.32
2022-11-24T09:03:04.200Z,10.44
2022-11-24T09:05:52.747Z,10.16
2022-11-24T09:08:23.484Z,10.34
2022-11-24T09:10:53.430Z,9.87
2022-11-24T09:13:23.355Z,10.41
2022-11-24T09:15:53.245Z,10.29
2022-11-24T09:18:30.036Z,10.28
2022-11-24T09:21:09.121Z,10.15
2022-11-24T09:23:39.472Z,10.20
2022-11-24T09:26:12.417Z,10.27
2022-11-24T09:28:42.954Z,10.28
2022-11-24T09:31:14.775Z,10.21
2022-11-24T09:33:47.824Z,9.99
2022-11-24T09:36:18.246Z,10.21
2022-11-24T09:38:48.278Z,10.27
2022-11-24T09:41:40.892Z,10.35
2022-11-24T09:44:23.468Z,10.54
2022-11-24T09:47:02.517Z,10.36
2022-11-24T09:49:41.840Z,10.68
2022-11-24T09:52:16.564Z,10.67
2022-11-24T09:54:55.431Z,10.66
2022-11-24T09:57:32.653Z,10.62
2022-11-24T10:00:14.561Z,10.78
2022-11-24T10:02:44.710Z,10.22
2022-11-24T10:05:17.810Z,10.92
2022-11-24T10:07:58.024Z,11.06
2022-11-24T10:10:31.401Z,10.88
2022-11-24T10:13:10.548Z,10.85
2022-11-24T10:15:47.865Z,10.84
2022-11-24T10:18:41.961Z,10.69
2022-11-24T10:21:36.699Z,10.46
2022-11-24T10:24:32.605Z,10.90
2022-11-24T10:27:05.943Z,11.13
2022-11-24T10:29:41.707Z,11.28
2022-11-24T10:32:20.347Z,11.15
2022-11-24T10:34:51.716Z,11.20
2022-11-24T10:37:31.180Z,11.17
2022-11-24T10:40:06.511Z,11.17
2022-11-24T10:42:40.300Z,11.24
2022-11-24T10:45:15.846Z,11.15
2022-11-24T10:47:47.330Z,11.16
2022-11-24T10:50:24.639Z,11.19
2022-11-24T10:53:04.522Z,11.17
2022-11-24T10:56:02.201Z,11.19
2022-11-24T10:58:37.647Z,10.55
2022-11-24T11:01:30.241Z,11.20
2022-11-24T11:04:02.629Z,11.21
2022-11-24T11:06:34.913Z,11.33
2022-11-24T11:09:21.850Z,11.35
2022-11-24T11:11:52.314Z,11.29
2022-11-24T11:14:33.221Z,11.00
2022-11-24T11:17:03.133Z,11.46
2022-11-24T11:20:00.427Z,11.52
2022-11-24T11:22:31.511Z,11.40
2022-11-24T11:25:21.178Z,11.16
2022-11-24T11:27:51.511Z,11.33
2022-11-24T11:36:17.445Z,10.99
2022-11-24T11:38:49.880Z,10.96
2022-11-24T11:41:26.914Z,10.99
2022-11-24T11:44:06.136Z,11.07
2022-11-24T11:46:36.783Z,11.24
2022-11-24T11:49:07.004Z,11.27
2022-11-24T11:51:49.075Z,11.18
2022-11-24T11:54:32.609Z,11.07
2022-11-24T11:57:13.333Z,10.76
2022-11-24T12:00:04.836Z,10.33
2022-11-24T12:03:06.907Z,10.92
2022-11-24T12:05:49.181Z,10.85
2022-11-24T12:08:43.967Z,10.89
2022-11-24T12:11:28.476Z,10.99
2022-11-24T12:14:15.600Z,11.05
2022-11-24T12:16:59.598Z,10.66
2022-11-24T12:19:48.253Z,11.12
2022-11-24T12:22:31.228Z,11.14
2022-11-24T12:25:21.354Z,11.20
2022-11-24T12:28:05.025Z,11.16
2022-11-24T12:30:45.147Z,11.13
2022-11-24T12:33:45.020Z,11.19
2022-11-24T12:36:34.724Z,11.30
2022-11-24T12:39:09.340Z,11.20
2022-11-24T12:41:56.690Z,11.30
2022-11-24T12:44:41.471Z,11.24
2022-11-24T12:47:24.629Z,11.26
2022-11-24T12:50:06.322Z,11.35
2022-11-24T12:52:42.283Z,11.40
2022-11-24T12:55:19.847Z,11.16
2022-11-24T12:57:58.486Z,11.52
2022-11-24T13:00:35.567Z,11.31
2022-11-24T13:03:23.858Z,11.33
2022-11-24T13:06:03.708Z,11.30
2022-11-24T13:08:34.565Z,11.13
2022-11-24T13:11:29.122Z,11.42
2022-11-24T13:14:02.078Z,11.34
2022-11-24T13:16:44.473Z,11.18
2022-11-24T13:19:35.188Z,11.11
2022-11-24T13:22:16.482Z,10.67
2022-11-24T13:24:47.145Z,11.16
2022-11-24T13:27:29.671Z,11.33
2022-11-24T13:29:59.676Z,11.34
2022-11-24T13:33:03.741Z,11.22
2022-11-24T13:35:37.211Z,11.24
2022-11-24T13:38:27.151Z,11.06
2022-11-24T13:41:20.916Z,11.25
2022-11-24T13:44:10.103Z,11.30
2022-11-24T13:47:05.248Z,11.11
2022-11-24T13:49:40.923Z,11.31
2022-11-24T13:52:40.828Z,11.28
2022-11-24T13:55:43.905Z,11.05
2022-11-24T13:58:33.674Z,11.05
2022-11-24T14:01:15.757Z,10.64
2022-11-24T14:04:27.937Z,11.13
2022-11-24T14:06:46.061Z,11.16
2022-11-24T14:09:25.884Z,11.15
2022-11-24T14:12:09.505Z,11.21
2022-11-24T14:14:39.369Z,10.76
2022-11-24T14:17:11.340Z,10.87
2022-11-24T14:19:41.406Z,10.92
2022-11-24T14:22:19.646Z,11.19
2022-11-24T14:24:55.546Z,11.01
2022-11-24T14:27:33.030Z,11.06
2022-11-24T14:30:04.756Z,10.99
2022-11-24T14:32:38.761Z,11.14
2022-11-24T14:35:25.558Z,10.64
2022-11-24T14:37:55.706Z,11.00
2022-11-24T14:40:44.507Z,10.84
2022-11-24T14:43:25.411Z,10.98
2022-11-24T14:45:58.451Z,11.00
2022-11-24T14:48:30.588Z,10.91
2022-11-24T14:51:11.263Z,10.87
2022-11-24T14:53:44.747Z,10.65
2022-11-24T14:56:26.720Z,10.87
2022-11-24T14:59:00.560Z,10.81
2022-11-24T15:01:36.351Z,10.67
2022-11-24T15:04:38.904Z,10.88
2022-11-24T15:07:16.804Z,10.79
2022-11-24T15:09:54.594Z,11.05
2022-11-24T15:12:30.794Z,10.58
2022-11-24T15:15:05.651Z,10.70
2022-11-24T15:17:37.052Z,10.60
2022-11-24T15:20:13.315Z,10.68
2022-11-24T15:22:44.927Z,10.67
2022-11-24T15:25:33.696Z,10.70
2022-11-24T15:28:05.746Z,10.54
2022-11-24T15:30:43.225Z,10.68
2022-11-24T15:33:16.513Z,10.77
2022-11-24T15:35:47.111Z,10.65
2022-11-24T15:38:17.630Z,10.80
2022-11-24T15:40:49.756Z,10.46
2022-11-24T15:43:25.850Z,10.73
2022-11-24T15:45:59.998Z,10.69
2022-11-24T15:48:30.606Z,10.24
2022-11-24T15:51:01.660Z,10.57
2022-11-24T15:53:35.065Z,10.62
2022-11-24T15:56:09.453Z,10.65
2022-11-24T15:58:39.371Z,10.61
2022-11-24T16:01:11.963Z,10.51
2022-11-24T16:03:48.658Z,10.47
2022-11-24T16:06:25.127Z,10.22
2022-11-24T16:08:55.753Z,9.75
2022-11-24T16:11:29.978Z,10.18
2022-11-24T16:14:00.112Z,10.12
2022-11-24T16:16:32.898Z,10.11
2022-11-24T16:19:02.987Z,9.68
2022-11-24T16:21:36.587Z,10.04
2022-11-24T16:24:06.825Z,10.10
2022-11-24T16:26:40.963Z,10.11
2022-11-24T16:29:12.977Z,10.14
2022-11-24T16:31:47.288Z,10.04
2022-11-24T16:34:18.226Z,10.09
2022-11-24T16:36:48.228Z,10.15
2022-11-24T16:39:19.287Z,9.98
2022-11-24T16:41:49.386Z,10.03
2022-11-24T16:44:19.249Z,10.14
2022-11-24T16:46:51.806Z,10.12
2022-11-24T16:49:30.333Z,10.09
2022-11-24T16:52:00.435Z,10.04
2022-11-24T16:54:31.486Z,10.06
2022-11-24T16:57:01.401Z,10.04
2022-11-24T16:59:37.456Z,10.12
2022-11-24T17:02:10.063Z,10.07
2022-11-24T17:04:41.037Z,9.98
2022-11-24T17:07:13.853Z,10.01
2022-11-24T17:09:48.402Z,9.96
2022-11-24T17:12:18.362Z,10.00
2022-11-24T17:15:09.465Z,9.86
2022-11-24T17:18:01.303Z,10.08
2022-11-24T17:20:31.930Z,9.95
2022-11-24T17:23:01.806Z,9.93
2022-11-24T17:25:31.829Z,9.58
2022-11-24T17:28:02.779Z,9.78
2022-11-24T17:30:33.587Z,9.78
2022-11-24T17:33:06.054Z,9.74
2022-11-24T17:35:38.544Z,9.61
2022-11-24T17:38:09.594Z,9.60
2022-11-24T17:40:39.642Z,9.62
2022-11-24T17:43:12.071Z,9.62
2022-11-24T17:45:44.342Z,9.58
2022-11-24T17:48:17.013Z,9.53
2022-11-24T17:50:49.098Z,9.48
2022-11-24T17:53:20.167Z,9.38
2022-11-24T17:55:50.162Z,9.39
2022-11-24T17:58:20.169Z,9.11
2022-11-24T18:00:54.366Z,9.00
2022-11-24T18:03:28.868Z,9.25
2022-11-24T18:05:58.998Z,9.17
2022-11-24T18:08:29.058Z,9.15
2022-11-24T18:11:06.015Z,8.80
2022-11-24T18:14:01.948Z,9.03
2022-11-24T18:16:28.360Z,8.98
2022-11-24T18:19:10.889Z,8.95
2022-11-24T18:21:43.827Z,8.92
2022-11-24T18:24:17.533Z,8.64
2022-11-24T18:26:52.741Z,8.52
2022-11-24T18:29:22.850Z,8.85
2022-11-24T18:31:56.640Z,8.82
2022-11-24T18:34:29.349Z,8.81
2022-11-24T18:36:59.369Z,8.70
2022-11-24T18:39:29.919Z,8.36
2022-11-24T18:41:59.889Z,8.70
2022-11-24T18:44:29.928Z,8.67
2022-11-24T18:46:59.988Z,8.64
2022-11-24T18:49:33.272Z,8.61
2022-11-24T18:52:03.316Z,8.60
2022-11-24T18:54:34.593Z,8.34
2022-11-24T18:57:04.958Z,8.57
2022-11-24T18:59:35.126Z,8.55
2022-11-24T19:02:05.273Z,8.54
2022-11-24T19:04:38.947Z,8.58
2022-11-24T19:07:09.020Z,8.56
2022-11-24T19:09:40.173Z,8.57
2022-11-24T19:12:10.509Z,8.40
2022-11-24T19:14:40.619Z,8.53
2022-11-24T19:17:10.823Z,8.53
2022-11-24T19:19:43.474Z,8.57
2022-11-24T19:22:13.616Z,8.52
2022-11-24T19:24:45.233Z,8.40
2022-11-24T19:27:16.586Z,8.48
2022-11-24T19:29:46.927Z,8.50
2022-11-24T19:32:19.222Z,8.50
2022-11-24T19:34:53.016Z,8.74
2022-11-24T19:37:23.591Z,8.74
2022-11-24T19:39:53.774Z,8.68
2022-11-24T19:42:23.792Z,8.51
2022-11-24T19:44:56.705Z,8.67
2022-11-24T19:47:27.878Z,8.68
2022-11-24T19:50:06.019Z,8.77
2022-11-24T19:52:39.170Z,8.44
2022-11-24T19:55:09.849Z,8.76
2022-11-24T19:57:39.770Z,8.50
2022-11-24T20:00:11.159Z,8.72
2022-11-24T20:02:41.300Z,8.78
2022-11-24T20:05:14.007Z,8.87
2022-11-24T20:07:44.175Z,8.71
2022-11-24T20:10:14.354Z,8.53
2022-11-24T20:12:44.386Z,8.90
2022-11-24T20:15:14.573Z,8.83
2022-11-24T20:17:44.579Z,8.81
2022-11-24T20:20:17.504Z,8.76
2022-11-24T20:22:47.537Z,8.83
2022-11-24T20:25:17.609Z,8.77
2022-11-24T20:27:47.490Z,8.87
2022-11-24T20:30:17.839Z,8.59
2022-11-24T20:32:47.722Z,8.68
2022-11-24T20:35:20.433Z,8.67
2022-11-24T20:37:50.566Z,8.59
2022-11-24T20:40:20.607Z,8.39
2022-11-24T20:42:50.738Z,8.29
2022-11-24T20:45:20.937Z,8.23
2022-11-24T20:47:57.057Z,8.29
2022-11-24T20:50:29.573Z,8.39
2022-11-24T20:52:59.424Z,8.29
2022-11-24T20:55:29.352Z,8.05
2022-11-24T20:57:59.303Z,8.49
2022-11-24T21:00:38.755Z,8.46
2022-11-24T21:03:14.814Z,8.50
2022-11-24T21:05:47.293Z,8.49
2022-11-24T21:08:21.675Z,8.39
2022-11-24T21:10:55.690Z,8.48
2022-11-24T21:13:26.294Z,8.35
2022-11-24T21:15:56.630Z,8.23
2022-11-24T21:18:26.542Z,8.37
2022-11-24T21:21:02.111Z,8.35
2022-11-24T21:23:35.704Z,8.47
2022-11-24T21:26:11.521Z,8.49
2022-11-24T21:28:46.935Z,8.36
2022-11-24T21:31:19.137Z,8.51
2022-11-24T21:33:55.141Z,8.50
2022-11-24T21:36:35.116Z,8.36
2022-11-24T21:39:06.405Z,8.23
2022-11-24T21:41:37.050Z,8.11
2022-11-24T21:44:08.285Z,7.82
2022-11-24T21:46:44.181Z,7.92
2022-11-24T21:49:17.859Z,8.12
2022-11-24T21:51:55.368Z,7.88
2022-11-24T21:54:26.577Z,8.12
2022-11-24T21:56:56.932Z,8.18
2022-11-24T21:59:26.843Z,8.28
2022-11-24T22:01:57.790Z,8.29
2022-11-24T22:04:27.726Z,8.23
2022-11-24T22:07:00.271Z,8.16
2022-11-24T22:09:31.223Z,8.24
2022-11-24T22:12:01.136Z,8.16
2022-11-24T22:14:31.753Z,8.10
2022-11-24T22:17:03.849Z,7.78
2022-11-24T22:19:35.758Z,7.95
2022-11-24T22:22:08.214Z,8.06
2022-11-24T22:24:41.854Z,8.16
2022-11-24T22:27:11.795Z,8.11
2022-11-24T22:29:43.650Z,8.15
2022-11-24T22:32:13.568Z,8.12
2022-11-24T22:34:46.659Z,7.92
2022-11-24T22:37:19.172Z,7.91
2022-11-24T22:39:49.017Z,7.77
2022-11-24T22:42:18.852Z,7.75
2022-11-24T22:44:49.744Z,7.66
2022-11-24T22:47:20.660Z,7.74
2022-11-24T22:49:53.620Z,7.70
2022-11-24T22:52:26.167Z,7.56
2022-11-24T22:54:56.035Z,7.81
2022-11-24T22:57:25.926Z,7.31
2022-11-24T22:59:58.039Z,7.60
2022-11-24T23:02:31.108Z,7.69
2022-11-24T23:05:01.002Z,7.63
2022-11-24T23:07:33.587Z,7.66
2022-11-24T23:10:03.467Z,7.23
2022-11-24T23:12:34.323Z,7.59
2022-11-24T23:15:05.541Z,7.61
2022-11-24T23:17:35.384Z,7.54
2022-11-24T23:20:05.285Z,7.50
2022-11-24T23:22:37.829Z,7.46
2022-11-24T23:25:08.483Z,7.43
2022-11-24T23:27:38.367Z,7.26
2022-11-24T23:30:13.249Z,7.25
2022-11-24T23:32:43.230Z,7.43
2022-11-24T23:35:14.150Z,7.51
2022-11-24T23:38:06.445Z,7.48
2022-11-24T23:40:36.814Z,7.45
2022-11-24T23:43:06.661Z,7.39
2022-11-24T23:45:38.693Z,7.39
2022-11-24T23:48:09.737Z,7.25
2022-11-24T23:50:39.565Z,7.11
2022-11-24T23:53:12.119Z,7.24
2022-11-24T23:55:42.020Z,7.25
2022-11-24T23:58:11.872Z,7.08
